Matthews, IN (46957)

12:04 AM EDT on September 01, 2016 (GMT -0400)
MY Yard Barn | | Change Station

Elev 853 ft 40.49 °N, 85.62 °W | Updated 2 minutes ago

Overcast
Overcast
69.0 °F
Feels Like 69.0 °F
N
1.3
Wind Variable Wind from NW
Gusts 3.0 mph

Today
High -- | Low -- °F
--% Chance of Precip.
Yesterday
High -- | Low -- °F
Precip. -- in
Pressure 30.00 in
Visibility 10.0 miles
Clouds Overcast 3000 ft
Dew Point 68 °F
Humidity 96%
Rainfall 0.00 in
Snow Depth Not available.
7:09 AM 8:13 PM
Waning Crescent, 0% visible
METAR KMIE 010353Z AUTO 36005KT 10SM OVC030 21/19 A3003 RMK AO2 SLP157 T02110189
Pressure 30.00 in
Visibility 10.0 miles
Clouds Overcast 3000 ft
Dew Point 68 °F
Humidity 96%
Rainfall 0.00 in
Snow Depth Not available.
7:09 AM 8:13 PM
Waning Crescent, 0% visible
METAR KMIE 010353Z AUTO 36005KT 10SM OVC030 21/19 A3003 RMK AO2 SLP157 T02110189

10-Day Weather Forecast

Almanac

Astronomy

Sep. 01, 2016 Rise Set
Actual Time
Civil Twilight
Nautical Twilight
Astronomical Twilight
Moon
Length of Visible Light
Length of Day
Tomorrow will be .
, % of the Moon is Illuminated

Today's Extremes

State Highs State Lows

Community

WunderPhotos

Upload Photos

1,936,293 photos uploaded!

WunderBlog® & News

Nearby

Air Quality

  Air Quality AQ Index Pollutant
Not available.

Snow Depth

Station Depth Elevation

Earthquake Activity

City Distance Mag. Time & Date
Minimum magnitude displayed is 2.5.

Coastal Water Temperatures

Place Temperature

Stations

Nearby Weather Stations

Station Location Temp. Windchill Dew Point Humidity Wind Precip. Elev Updated Type
                   

Watches & Warnings

There are currently no watches in effect.